Time;durP1;ratioP1;P1;durP2;ratioP2;P2;SDS_P1;SDS_P2;PMS_P1;PMS_P2;Temp;Humidity;BMP_temperature;BMP_pressure;BME280_temperature;BME280_humidity;BME280_pressure;Samples;Min_cycle;Max_cycle;Signal;HPM_P1;HPM_P2
2023/05/16 00:00:14;;;;;;;10.50;8.50;;;;;;;10.83;99.67;99239.65;103705;1256;108150;-66
2023/05/16 00:03:01;;;;;;;9.70;8.00;;;;;;;10.83;99.62;99240.52;104125;1250;138679;-67
2023/05/16 00:05:32;;;;;;;10.80;8.30;;;;;;;10.82;99.58;99239.88;103745;1250;111127;-66
2023/05/16 00:07:59;;;;;;;10.00;8.80;;;;;;;10.82;99.66;99236.27;103571;1255;108181;-66
2023/05/16 00:10:29;;;;;;;11.30;9.10;;;;;;;10.81;99.44;99236.45;103682;1255;138515;-66
2023/05/16 00:12:56;;;;;;;13.40;9.20;;;;;;;10.81;99.75;99235.05;104016;1250;108137;-68
2023/05/16 00:15:26;;;;;;;10.50;9.40;;;;;;;10.82;99.92;99232.77;103500;1250;138705;-66
2023/05/16 00:18:05;;;;;;;10.50;9.40;;;;;;;10.82;99.68;99238.66;104266;1250;112209;-65
2023/05/16 00:20:42;;;;;;;10.80;9.10;;;;;;;10.82;99.94;99236.39;103738;1250;108405;-65
2023/05/16 00:23:09;;;;;;;11.70;9.30;;;;;;;10.82;99.90;99240.55;103483;1256;138374;-65
2023/05/16 00:25:36;;;;;;;10.50;9.50;;;;;;;10.83;99.85;99238.45;104022;1253;107865;-65
2023/05/16 00:28:03;;;;;;;11.80;10.60;;;;;;;10.83;99.77;99239.64;103820;1250;138738;-65
2023/05/16 00:30:30;;;;;;;10.80;9.70;;;;;;;10.85;99.81;99239.58;103471;1250;111887;-65
2023/05/16 00:32:57;;;;;;;12.30;10.00;;;;;;;10.84;99.85;99242.58;103552;1250;107743;-66
2023/05/16 00:35:25;;;;;;;12.30;11.00;;;;;;;10.84;99.70;99245.19;103867;1250;98090;-66
2023/05/16 00:37:53;;;;;;;11.40;10.20;;;;;;;10.84;99.66;99242.75;103926;1250;107879;-66
2023/05/16 00:40:21;;;;;;;15.60;10.70;;;;;;;10.84;99.97;99246.23;103866;1250;138762;-66
2023/05/16 00:42:48;;;;;;;13.40;11.30;;;;;;;10.83;99.91;99245.57;104250;1250;110915;-66
2023/05/16 00:45:15;;;;;;;13.70;11.40;;;;;;;10.83;99.98;99243.98;103479;1253;138878;-66
2023/05/16 00:47:45;;;;;;;13.80;10.60;;;;;;;10.83;100.00;99247.51;104284;1256;96934;-66
2023/05/16 00:50:13;;;;;;;13.30;11.70;;;;;;;10.83;99.75;99244.17;103554;1250;108853;-66
2023/05/16 00:52:40;;;;;;;14.70;11.30;;;;;;;10.83;99.90;99241.73;103576;1254;139000;-66
2023/05/16 00:55:10;;;;;;;13.70;11.60;;;;;;;10.82;99.64;99238.66;104015;1251;110339;-66
2023/05/16 00:57:37;;;;;;;12.60;11.30;;;;;;;10.83;99.67;99244.33;104049;1253;138898;-66
2023/05/16 01:00:07;;;;;;;13.50;11.90;;;;;;;10.84;99.70;99240.65;104366;1250;97886;-66
2023/05/16 01:02:36;;;;;;;12.80;11.50;;;;;;;10.85;99.80;99237.47;103981;1256;107531;-66
2023/05/16 01:05:06;;;;;;;12.40;11.10;;;;;;;10.86;99.69;99236.38;103485;1251;138682;-66
2023/05/16 01:07:33;;;;;;;14.40;12.00;;;;;;;10.86;99.67;99239.84;104628;1251;110632;-66
2023/05/16 01:10:00;;;;;;;13.30;10.70;;;;;;;10.87;99.81;99237.89;104745;1250;139376;-66
2023/05/16 01:12:37;;;;;;;13.30;12.00;;;;;;;10.88;99.75;99240.81;104890;1251;96084;-66
2023/05/16 01:15:09;;;;;;;13.40;11.70;;;;;;;10.89;99.59;99243.33;104633;1255;138641;-67
2023/05/16 01:17:44;;;;;;;12.50;11.20;;;;;;;10.92;99.79;99251.73;103781;1250;97800;-66
2023/05/16 01:20:21;;;;;;;13.50;11.90;;;;;;;10.93;99.92;99252.73;103777;1250;109483;-66
2023/05/16 01:23:04;;;;;;;;;;;;;;;10.94;99.11;99256.65;103732;1250;138651;-66
2023/05/16 01:25:46;;;;;;;17.20;12.90;;;;;;;10.94;99.20;99253.36;103694;1250;97663;-66
2023/05/16 01:28:16;;;;;;;15.00;12.10;;;;;;;10.96;99.00;99259.41;103900;1251;138679;-66
2023/05/16 01:30:43;;;;;;;13.70;12.20;;;;;;;10.97;98.98;99259.33;103970;1250;97861;-66
2023/05/16 01:33:11;;;;;;;13.70;12.30;;;;;;;10.98;99.17;99261.20;103406;1255;139187;-66
2023/05/16 01:35:47;;;;;;;14.10;12.40;;;;;;;10.99;98.76;99265.31;103552;1253;107672;-66
2023/05/16 01:38:23;;;;;;;14.30;12.80;;;;;;;11.01;99.20;99271.98;103596;1253;97849;-66
2023/05/16 01:40:56;;;;;;;16.00;12.60;;;;;;;11.02;98.88;99274.91;103435;1251;139877;-66
2023/05/16 01:43:30;;;;;;;14.20;12.70;;;;;;;11.05;98.93;99279.47;103546;1255;97764;-66
2023/05/16 01:46:09;;;;;;;13.90;12.30;;;;;;;11.07;98.88;99278.50;104293;1253;138380;-66
2023/05/16 01:48:44;;;;;;;16.70;12.60;;;;;;;11.07;98.88;99278.83;103884;1250;108088;-66
2023/05/16 01:51:13;;;;;;;13.30;11.90;;;;;;;11.07;98.89;99278.32;103437;1250;138893;-66
2023/05/16 01:53:44;;;;;;;14.10;12.60;;;;;;;11.06;98.51;99274.87;103536;1255;108276;-66
2023/05/16 01:56:15;;;;;;;17.50;12.50;;;;;;;11.06;98.19;99280.10;103585;1256;97848;-66
2023/05/16 01:58:45;;;;;;;13.70;12.30;;;;;;;11.05;98.24;99279.63;103300;1253;138516;-66
2023/05/16 02:01:16;;;;;;;14.70;13.10;;;;;;;11.04;98.20;99280.90;103854;1253;108850;-66
2023/05/16 02:03:43;;;;;;;15.20;12.70;;;;;;;11.04;98.56;99286.30;104472;1250;139274;-66
2023/05/16 02:06:10;;;;;;;16.00;12.40;;;;;;;11.04;98.27;99282.81;103589;1250;108922;-66
2023/05/16 02:08:38;;;;;;;14.40;13.00;;;;;;;11.04;98.27;99282.28;103506;1250;97783;-66
2023/05/16 02:11:04;;;;;;;14.60;13.10;;;;;;;11.06;97.84;99284.81;103742;1251;139297;-67
2023/05/16 02:13:31;;;;;;;14.60;13.10;;;;;;;11.07;97.73;99281.98;104119;1250;107743;-66
2023/05/16 02:16:03;;;;;;;17.00;13.50;;;;;;;11.07;97.47;99281.79;103695;1255;138742;-66
2023/05/16 02:18:30;;;;;;;16.30;13.80;;;;;;;11.07;97.48;99281.42;103484;1252;108615;-66
2023/05/16 02:21:01;;;;;;;15.10;13.50;;;;;;;11.08;97.22;99291.66;103734;1253;138836;-67
2023/05/16 02:23:28;;;;;;;15.80;14.20;;;;;;;11.08;97.08;99290.95;103560;1255;112276;-66
2023/05/16 02:25:55;;;;;;;15.90;14.10;;;;;;;11.08;96.99;99290.77;103712;1253;108441;-66
2023/05/16 02:28:22;;;;;;;17.90;15.20;;;;;;;11.08;97.00;99295.46;103724;1253;138651;-66
2023/05/16 02:30:58;;;;;;;14.90;13.10;;;;;;;11.08;96.94;99288.88;103561;1250;108232;-66
2023/05/16 02:33:27;;;;;;;15.00;13.30;;;;;;;11.07;96.92;99288.21;103571;1250;138815;-66
2023/05/16 02:35:54;;;;;;;14.80;13.20;;;;;;;11.04;96.78;99289.57;104159;1250;111328;-66
2023/05/16 02:38:25;;;;;;;14.80;13.30;;;;;;;11.03;96.64;99287.90;103510;1253;107952;-66
2023/05/16 02:40:54;;;;;;;15.40;13.80;;;;;;;11.02;96.40;99296.13;103685;1250;138743;-66
2023/05/16 02:43:21;;;;;;;14.80;12.80;;;;;;;11.02;96.42;99291.95;103550;1254;108358;-70
2023/05/16 02:45:49;;;;;;;14.70;12.70;;;;;;;11.02;96.13;99294.93;103452;1250;138685;-66
2023/05/16 02:48:16;;;;;;;15.50;13.50;;;;;;;11.00;95.80;99293.98;103572;1255;110799;-66
2023/05/16 02:50:43;;;;;;;15.60;13.70;;;;;;;10.97;95.72;99291.87;103855;1250;108327;-66
2023/05/16 02:53:10;;;;;;;14.60;12.60;;;;;;;10.93;95.68;99299.17;103837;1251;139616;-66
2023/05/16 02:55:37;;;;;;;15.10;13.50;;;;;;;10.87;95.66;99298.23;103845;1255;108799;-66
2023/05/16 02:58:04;;;;;;;13.10;11.80;;;;;;;10.82;95.72;99297.80;103557;1250;138683;-66
2023/05/16 03:00:31;;;;;;;14.80;12.20;;;;;;;10.78;95.61;99300.43;104432;1250;111881;-66
2023/05/16 03:02:59;;;;;;;14.10;12.70;;;;;;;10.75;95.40;99301.24;103968;1251;107031;-66
2023/05/16 03:05:27;;;;;;;14.40;12.20;;;;;;;10.73;95.59;99310.02;104358;1250;96608;-66
2023/05/16 03:07:55;;;;;;;13.70;12.30;;;;;;;10.70;95.44;99305.34;103798;1255;107590;-66
2023/05/16 03:10:22;;;;;;;14.50;13.00;;;;;;;10.68;95.55;99302.63;103716;1250;138840;-66
2023/05/16 03:12:49;;;;;;;13.30;11.70;;;;;;;10.67;95.49;99304.41;103578;1251;110609;-66
2023/05/16 03:15:17;;;;;;;15.60;12.40;;;;;;;10.64;95.57;99304.56;103533;1250;138801;-65
2023/05/16 03:17:44;;;;;;;15.70;12.10;;;;;;;10.63;95.43;99302.02;103787;1250;97698;-66
2023/05/16 03:20:13;;;;;;;15.00;12.20;;;;;;;10.61;95.35;99301.59;104113;1250;107671;-66
2023/05/16 03:22:40;;;;;;;15.70;12.80;;;;;;;10.59;95.30;99304.64;104085;1250;139277;-66
2023/05/16 03:25:10;;;;;;;15.10;12.80;;;;;;;10.58;95.32;99306.02;104205;1250;110331;-66
2023/05/16 03:27:39;;;;;;;14.10;12.60;;;;;;;10.62;95.45;99306.58;103766;1251;139783;-66
2023/05/16 03:30:08;;;;;;;15.80;12.60;;;;;;;10.66;95.44;99306.93;103557;1250;97892;-66
2023/05/16 03:32:35;;;;;;;14.20;12.80;;;;;;;10.69;95.42;99307.80;103706;1250;108055;-66
2023/05/16 03:35:03;;;;;;;14.10;12.60;;;;;;;10.73;95.51;99311.59;103847;1250;139141;-66
2023/05/16 03:37:30;;;;;;;14.00;12.70;;;;;;;10.76;95.19;99309.73;103554;1255;111354;-66
2023/05/16 03:39:57;;;;;;;15.10;12.00;;;;;;;10.77;95.20;99318.89;103402;1251;138782;-66
2023/05/16 03:42:24;;;;;;;13.00;11.40;;;;;;;10.76;95.17;99313.89;103582;1250;97767;-66
2023/05/16 03:44:51;;;;;;;14.70;12.50;;;;;;;10.77;94.83;99315.42;103518;1253;107501;-66
2023/05/16 03:47:18;;;;;;;15.20;12.10;;;;;;;10.77;94.96;99317.86;103406;1253;138510;-66
2023/05/16 03:49:45;;;;;;;14.10;12.70;;;;;;;10.75;94.76;99313.92;103514;1250;112192;-66
2023/05/16 03:52:15;;;;;;;14.60;13.10;;;;;;;10.76;94.66;99316.15;103443;1251;138921;-65
2023/05/16 03:54:42;;;;;;;13.90;12.50;;;;;;;10.78;94.82;99314.86;103540;1250;98399;-65
2023/05/16 03:57:09;;;;;;;13.80;12.40;;;;;;;10.79;94.62;99321.45;103415;1250;139184;-65
2023/05/16 03:59:37;;;;;;;18.20;13.00;;;;;;;10.81;94.68;99319.40;103445;1253;97875;-65
2023/05/16 04:02:05;;;;;;;14.50;12.80;;;;;;;10.83;94.72;99319.30;104029;1256;111424;-65
2023/05/16 04:04:32;;;;;;;14.40;12.80;;;;;;;10.85;94.72;99322.17;103429;1250;138777;-65
2023/05/16 04:07:00;;;;;;;14.40;12.80;;;;;;;10.88;94.63;99322.55;103595;1251;98326;-65
2023/05/16 04:09:27;;;;;;;14.00;12.60;;;;;;;10.92;94.57;99322.02;103415;1251;142346;-65
2023/05/16 04:11:55;;;;;;;14.00;12.40;;;;;;;10.94;94.40;99319.98;103572;1251;98206;-65
2023/05/16 04:14:22;;;;;;;13.70;12.20;;;;;;;10.97;94.25;99318.84;103547;1250;111865;-65
2023/05/16 04:16:50;;;;;;;14.60;13.00;;;;;;;10.99;94.23;99322.73;104014;1250;138670;-66
2023/05/16 04:19:17;;;;;;;14.10;12.50;;;;;;;11.02;94.22;99326.23;103743;1251;98293;-65
2023/05/16 04:21:45;;;;;;;13.60;12.20;;;;;;;11.07;94.47;99327.86;104262;1250;138505;-66
2023/05/16 04:24:12;;;;;;;14.50;12.40;;;;;;;11.13;93.86;99328.62;104845;1250;95951;-66
2023/05/16 04:26:39;;;;;;;14.50;12.00;;;;;;;11.17;93.84;99332.59;103882;1250;111453;-66
2023/05/16 04:29:06;;;;;;;14.80;12.00;;;;;;;11.22;93.54;99331.34;103431;1251;139656;-66
2023/05/16 04:31:34;;;;;;;16.60;12.60;;;;;;;11.28;93.51;99328.59;103574;1256;97704;-65
2023/05/16 04:34:01;;;;;;;13.80;11.40;;;;;;;11.36;93.19;99329.09;103417;1250;140798;-65
2023/05/16 04:36:30;;;;;;;14.00;11.60;;;;;;;11.41;92.92;99331.08;103591;1251;97857;-66
2023/05/16 04:38:57;;;;;;;13.40;11.60;;;;;;;11.47;92.62;99329.02;103589;1250;111600;-66
2023/05/16 04:41:25;;;;;;;12.20;10.20;;;;;;;11.54;92.33;99332.16;103544;1250;108797;-65
2023/05/16 04:43:52;;;;;;;14.20;11.80;;;;;;;11.63;92.19;99336.92;103585;1251;98299;-65
2023/05/16 04:46:23;;;;;;;14.80;10.90;;;;;;;11.73;91.75;99341.80;103485;1256;138621;-65
2023/05/16 04:48:50;;;;;;;13.80;10.90;;;;;;;11.81;91.24;99338.10;103576;1250;98375;-66
2023/05/16 04:51:18;;;;;;;12.50;10.70;;;;;;;11.93;91.18;99343.23;103444;1250;138625;-65
2023/05/16 04:53:45;;;;;;;11.40;9.90;;;;;;;12.09;90.30;99342.60;103506;1250;107777;-65
2023/05/16 04:56:11;;;;;;;11.60;10.10;;;;;;;12.23;89.61;99346.02;103556;1250;98356;-65
2023/05/16 04:58:41;;;;;;;10.70;9.60;;;;;;;12.39;88.82;99343.23;103404;1253;138503;-65
2023/05/16 05:01:09;;;;;;;11.40;9.10;;;;;;;12.56;87.88;99347.73;103545;1251;97682;-65
2023/05/16 05:03:37;;;;;;;11.20;9.30;;;;;;;12.70;86.05;99350.78;103862;1254;138478;-65
2023/05/16 05:06:04;;;;;;;10.60;9.30;;;;;;;12.84;85.76;99351.55;103429;1253;107525;-66
2023/05/16 05:08:31;;;;;;;11.00;8.70;;;;;;;13.01;85.16;99356.89;103546;1254;97802;-66
2023/05/16 05:10:58;;;;;;;9.90;8.90;;;;;;;13.18;83.81;99356.33;103373;1255;138334;-65
2023/05/16 05:13:25;;;;;;;12.20;9.20;;;;;;;13.37;83.51;99349.99;103539;1250;97788;-65
2023/05/16 05:15:52;;;;;;;12.80;9.10;;;;;;;13.58;83.38;99346.64;103396;1250;138448;-66
2023/05/16 05:18:19;;;;;;;9.00;8.10;;;;;;;13.88;82.84;99349.77;103508;1250;108253;-66
2023/05/16 05:20:47;;;;;;;10.00;8.00;;;;;;;14.67;82.48;99349.80;103560;1250;97810;-66
2023/05/16 05:23:14;;;;;;;8.40;7.20;;;;;;;16.05;78.86;99358.38;103388;1253;138380;-66
2023/05/16 05:25:41;;;;;;;11.90;7.50;;;;;;;17.14;75.71;99341.16;103507;1250;97779;-66
2023/05/16 05:28:08;;;;;;;13.10;6.90;;;;;;;18.37;71.00;99343.54;103460;1256;138468;-67
2023/05/16 05:30:35;;;;;;;7.80;6.70;;;;;;;19.53;67.96;99345.82;103935;1256;109421;-67
2023/05/16 05:33:02;;;;;;;13.40;7.30;;;;;;;19.66;65.75;99348.13;104343;1250;97678;-67
2023/05/16 05:35:29;;;;;;;9.10;7.10;;;;;;;20.05;64.50;99350.40;104694;1250;108643;-68
2023/05/16 05:37:57;;;;;;;10.70;6.60;;;;;;;20.45;62.78;99351.54;104050;1253;97893;-68
2023/05/16 05:40:23;;;;;;;11.40;6.60;;;;;;;20.13;60.10;99354.88;103898;1250;139488;-68
2023/05/16 05:42:50;;;;;;;11.70;6.90;;;;;;;19.79;61.97;99364.14;104033;1250;107967;-68
2023/05/16 05:45:18;;;;;;;7.40;6.70;;;;;;;19.18;61.79;99366.71;103438;1251;138336;-68
2023/05/16 05:47:45;;;;;;;8.20;7.10;;;;;;;18.46;62.42;99368.20;104213;1250;109099;-68
2023/05/16 05:50:13;;;;;;;7.90;7.10;;;;;;;17.81;63.60;99371.89;103736;1256;97657;-68
2023/05/16 05:52:41;;;;;;;10.80;8.00;;;;;;;17.36;64.55;99379.42;103529;1250;138270;-67
2023/05/16 05:55:09;;;;;;;10.20;8.00;;;;;;;16.88;65.09;99387.70;104666;1254;107874;-67
2023/05/16 05:57:35;;;;;;;8.90;8.00;;;;;;;16.41;66.18;99396.95;103994;1250;139291;-68
2023/05/16 06:00:03;;;;;;;9.90;7.70;;;;;;;16.04;66.86;99404.42;103412;1251;107877;-67
2023/05/16 06:02:33;;;;;;;12.80;8.00;;;;;;;15.82;67.69;99403.98;103238;1255;330333;-67
2023/05/16 06:05:01;;;;;;;9.60;7.60;;;;;;;15.71;67.81;99412.23;103391;1256;139051;-68
2023/05/16 06:07:28;;;;;;;11.30;8.60;;;;;;;15.47;67.76;99421.52;103471;1255;106922;-67
2023/05/16 06:09:55;;;;;;;8.90;8.00;;;;;;;15.19;68.24;99422.09;103382;1256;138432;-66
2023/05/16 06:12:22;;;;;;;9.30;8.40;;;;;;;14.93;68.12;99424.11;103538;1251;107744;-66
2023/05/16 06:14:49;;;;;;;12.20;9.00;;;;;;;14.64;68.76;99431.35;103612;1251;97775;-67
2023/05/16 06:17:16;;;;;;;10.90;8.80;;;;;;;14.37;69.66;99433.52;103730;1250;138289;-67
2023/05/16 06:19:44;;;;;;;10.20;9.10;;;;;;;14.20;70.48;99443.13;103062;1254;108488;-67
2023/05/16 06:22:11;;;;;;;11.30;10.10;;;;;;;14.04;70.93;99448.23;103400;1251;138526;-68
2023/05/16 06:24:38;;;;;;;10.00;9.00;;;;;;;13.88;71.31;99457.05;103518;1250;108947;-67
2023/05/16 06:27:06;;;;;;;11.30;9.50;;;;;;;13.72;71.71;99469.37;103580;1255;98564;-64
2023/05/16 06:29:33;;;;;;;10.90;9.80;;;;;;;13.57;72.23;99462.17;103519;1254;110528;-65
2023/05/16 06:32:00;;;;;;;12.00;10.30;;;;;;;13.47;72.80;99469.92;103840;1257;108410;-67
2023/05/16 06:34:27;;;;;;;11.80;10.60;;;;;;;13.40;73.35;99476.73;103451;1254;138662;-67
2023/05/16 06:36:54;;;;;;;10.70;9.70;;;;;;;13.36;73.68;99484.89;103585;1256;108539;-67
2023/05/16 06:39:21;;;;;;;10.40;9.30;;;;;;;13.28;73.41;99485.63;103428;1256;138653;-67
2023/05/16 06:41:48;;;;;;;10.80;9.80;;;;;;;13.24;73.49;99491.61;103887;1251;111867;-67
2023/05/16 06:44:16;;;;;;;13.00;9.70;;;;;;;13.22;73.88;99497.46;103536;1253;107914;-67
2023/05/16 06:46:43;;;;;;;13.50;10.00;;;;;;;13.22;73.97;99501.66;103459;1256;138449;-67
2023/05/16 06:49:10;;;;;;;10.70;9.50;;;;;;;13.25;74.21;99502.88;103460;1255;108647;-67
2023/05/16 06:51:37;;;;;;;11.00;9.50;;;;;;;13.32;74.08;99505.17;103355;1251;138670;-67
2023/05/16 06:54:04;;;;;;;9.70;8.80;;;;;;;13.34;73.78;99505.90;103593;1251;111038;-67
2023/05/16 06:56:32;;;;;;;11.70;8.30;;;;;;;13.34;73.67;99516.55;103945;1250;108117;-66
2023/05/16 06:59:00;;;;;;;9.10;8.10;;;;;;;13.32;73.23;99512.82;104312;1251;138684;-66
2023/05/16 07:01:27;;;;;;;8.90;8.00;;;;;;;13.31;73.28;99519.52;104400;1250;107316;-67
2023/05/16 07:03:55;;;;;;;9.60;8.60;;;;;;;13.28;73.09;99529.95;103500;1251;138708;-67
2023/05/16 07:06:22;;;;;;;9.40;8.30;;;;;;;13.28;73.49;99533.83;103544;1250;111429;-66
2023/05/16 07:08:52;;;;;;;10.10;8.40;;;;;;;13.29;73.53;99532.52;103508;1250;107386;-67
2023/05/16 07:11:20;;;;;;;13.60;8.50;;;;;;;13.27;73.62;99540.65;104158;1250;138555;-67
2023/05/16 07:13:47;;;;;;;11.80;9.30;;;;;;;13.26;73.58;99543.13;103708;1250;107390;-66
2023/05/16 07:16:17;;;;;;;11.00;9.20;;;;;;;13.27;73.72;99547.46;104013;1259;138839;-67
2023/05/16 07:18:44;;;;;;;10.20;9.10;;;;;;;13.31;73.75;99551.13;104356;1255;111117;-67
2023/05/16 07:21:11;;;;;;;9.50;8.60;;;;;;;13.37;73.87;99555.48;103410;1257;138792;-67
2023/05/16 07:23:38;;;;;;;9.00;7.90;;;;;;;13.45;73.72;99564.28;104143;1250;98274;-66
2023/05/16 07:26:05;;;;;;;8.90;7.80;;;;;;;13.57;73.37;99563.86;103829;1251;108223;-68
2023/05/16 07:28:32;;;;;;;7.40;6.70;;;;;;;14.59;73.29;99559.84;103468;1251;138242;-68
2023/05/16 07:30:59;;;;;;;7.20;5.80;;;;;;;16.63;70.04;99558.73;103442;1250;111876;-68
2023/05/16 07:33:29;;;;;;;5.50;4.60;;;;;;;18.70;66.33;99554.85;103381;1256;138808;-68
2023/05/16 07:35:56;;;;;;;4.00;3.70;;;;;;;20.49;60.93;99555.38;103439;1256;97778;-66
2023/05/16 07:38:40;;;;;;;5.50;4.00;;;;;;;21.56;57.01;99562.41;103690;1255;107852;-68
2023/05/16 07:41:08;;;;;;;6.00;3.40;;;;;;;21.92;53.93;99560.17;103601;1255;138357;-67
2023/05/16 07:43:35;;;;;;;4.50;3.30;;;;;;;21.57;53.56;99570.05;103513;1251;109696;-68
2023/05/16 07:46:02;;;;;;;4.50;3.70;;;;;;;21.09;53.81;99576.07;103308;1255;138239;-67
2023/05/16 07:48:29;;;;;;;5.10;4.40;;;;;;;20.62;54.16;99579.52;103493;1256;98211;-68
2023/05/16 07:50:56;;;;;;;6.70;4.30;;;;;;;20.11;54.98;99583.05;103670;1251;106916;-67
2023/05/16 07:53:23;;;;;;;4.40;4.00;;;;;;;19.39;55.18;99595.23;103667;1250;137867;-67
2023/05/16 07:55:51;;;;;;;3.40;3.10;;;;;;;18.67;55.74;99594.22;103864;1254;111585;-67
2023/05/16 07:58:18;;;;;;;6.60;3.60;;;;;;;18.08;56.71;99604.66;103441;1255;138610;-67
2023/05/16 08:00:45;;;;;;;4.30;3.40;;;;;;;17.57;57.46;99602.19;103616;1251;98298;-67
2023/05/16 08:03:12;;;;;;;7.20;3.80;;;;;;;17.07;58.38;99601.47;103628;1251;138513;-67
2023/05/16 08:05:39;;;;;;;4.90;3.70;;;;;;;16.64;59.15;99605.58;103669;1251;97740;-67
2023/05/16 08:08:07;;;;;;;3.70;3.40;;;;;;;16.30;60.26;99605.44;103515;1251;111602;-67
2023/05/16 08:10:34;;;;;;;5.90;4.30;;;;;;;16.07;61.29;99609.02;103440;1256;138306;-67
2023/05/16 08:13:01;;;;;;;7.10;3.60;;;;;;;15.93;61.73;99604.70;103969;1251;97672;-67
2023/05/16 08:15:30;;;;;;;4.30;3.60;;;;;;;15.81;62.44;99608.77;103429;1251;138399;-67
2023/05/16 08:17:59;;;;;;;3.50;3.20;;;;;;;15.71;62.77;99606.27;103471;1257;97913;-67
2023/05/16 08:20:26;;;;;;;3.70;3.40;;;;;;;15.59;63.04;99612.63;103596;1254;111427;-67
2023/05/16 08:22:53;;;;;;;4.50;3.90;;;;;;;15.49;63.46;99614.09;104268;1251;141616;-67
2023/05/16 08:25:21;;;;;;;4.60;3.80;;;;;;;15.48;63.88;99616.98;103979;1254;97765;-68
2023/05/16 08:27:49;;;;;;;7.60;3.70;;;;;;;15.55;64.19;99609.84;103956;1255;138367;-68
2023/05/16 08:30:16;;;;;;;6.40;3.90;;;;;;;15.70;63.95;99612.96;104682;1254;96217;-67
2023/05/16 08:32:44;;;;;;;4.20;3.50;;;;;;;15.86;63.62;99609.54;103755;1256;110778;-69
2023/05/16 08:35:11;;;;;;;5.90;3.60;;;;;;;15.95;63.52;99608.08;103510;1251;138562;-69
2023/05/16 08:37:39;;;;;;;3.90;3.60;;;;;;;16.02;63.86;99610.41;103544;1251;97770;-68
2023/05/16 08:40:09;;;;;;;5.10;3.40;;;;;;;16.29;64.34;99609.34;103538;1254;138243;-68
2023/05/16 08:42:37;;;;;;;6.80;3.60;;;;;;;17.03;63.52;99599.11;103569;1251;97828;-68
2023/05/16 08:45:05;;;;;;;4.20;3.50;;;;;;;17.57;62.24;99603.72;103529;1256;111494;-68
2023/05/16 08:47:35;;;;;;;3.50;3.20;;;;;;;18.25;61.64;99603.34;103500;1256;108867;-68
2023/05/16 08:50:04;;;;;;;3.80;3.20;;;;;;;18.99;60.27;99603.61;103683;1255;96184;-68
2023/05/16 08:52:33;;;;;;;3.90;3.20;;;;;;;19.68;59.35;99611.80;103421;1255;137961;-68
2023/05/16 08:55:03;;;;;;;3.40;3.00;;;;;;;20.76;57.85;99608.35;103780;1257;97586;-68
2023/05/16 08:57:35;;;;;;;;;;;;;;;21.44;55.68;99610.33;103999;1256;138724;-69
2023/05/16 09:00:10;;;;;;;3.10;2.80;;;;;;;21.57;54.01;99609.48;103422;1257;107063;-69
2023/05/16 09:02:39;;;;;;;4.40;3.20;;;;;;;21.29;52.96;99612.66;103503;1256;98106;-69
2023/05/16 09:05:08;;;;;;;3.20;2.80;;;;;;;20.87;52.91;99616.57;103327;1251;137916;-68
2023/05/16 09:07:35;;;;;;;3.70;3.40;;;;;;;20.55;53.49;99618.08;104213;1256;96657;-69
2023/05/16 09:10:02;;;;;;;4.30;3.40;;;;;;;20.43;53.93;99617.16;103343;1256;137910;-68
2023/05/16 09:12:30;;;;;;;3.00;2.70;;;;;;;20.34;53.77;99614.45;103395;1250;107647;-68
2023/05/16 09:14:57;;;;;;;2.90;2.50;;;;;;;20.17;54.25;99614.30;103850;1256;97113;-69
2023/05/16 09:17:25;;;;;;;3.70;2.20;;;;;;;20.18;54.31;99612.30;104608;1251;137875;-69
2023/05/16 09:20:17;;;;;;;1.90;1.70;;;;;;;20.09;53.24;99620.08;103762;1256;98455;-69
2023/05/16 09:22:53;;;;;;;3.60;2.10;;;;;;;20.01;53.33;99622.31;103381;1256;137914;-68
2023/05/16 09:25:22;;;;;;;5.00;2.10;;;;;;;20.11;53.50;99624.17;103439;1256;107554;-68
2023/05/16 09:27:58;;;;;;;3.30;2.00;;;;;;;20.90;53.52;99625.58;103399;1257;138002;-68
2023/05/16 09:30:30;;;;;;;1.80;1.70;;;;;;;21.41;52.09;99635.15;103302;1260;108227;-69
2023/05/16 09:32:57;;;;;;;3.00;1.90;;;;;;;21.41;51.10;99644.75;103452;1257;97765;-68
2023/05/16 09:35:26;;;;;;;4.00;2.10;;;;;;;21.15;50.38;99654.17;103434;1256;137697;-69
2023/05/16 09:37:55;;;;;;;2.40;1.70;;;;;;;20.67;50.30;99656.80;103485;1256;107235;-69
2023/05/16 09:40:24;;;;;;;2.10;1.90;;;;;;;20.37;51.30;99654.70;103388;1256;137611;-68
2023/05/16 09:43:04;;;;;;;2.60;1.90;;;;;;;20.22;51.21;99661.60;103498;1251;108057;-68
2023/05/16 09:45:32;;;;;;;2.30;2.10;;;;;;;20.02;51.80;99664.40;103344;1257;138138;-68
2023/05/16 09:48:04;;;;;;;3.70;2.30;;;;;;;19.88;52.32;99672.95;103427;1251;111108;-68
2023/05/16 09:50:32;;;;;;;2.40;2.20;;;;;;;19.72;52.34;99672.86;103461;1257;106942;-69
2023/05/16 09:52:59;;;;;;;3.40;2.30;;;;;;;19.54;52.40;99680.93;103419;1256;137639;-68
2023/05/16 09:55:26;;;;;;;2.90;2.20;;;;;;;19.33;52.26;99686.06;103405;1251;107965;-67
2023/05/16 09:57:54;;;;;;;2.30;2.10;;;;;;;19.14;52.63;99689.48;103441;1251;137894;-67
2023/05/16 10:00:21;;;;;;;6.70;2.10;;;;;;;18.91;52.71;99689.86;103609;1256;111349;-67
2023/05/16 10:02:49;;;;;;;4.20;2.10;;;;;;;18.76;53.39;99703.10;103644;1256;107186;-68
2023/05/16 10:05:17;;;;;;;4.20;2.10;;;;;;;18.63;53.51;99712.48;103658;1251;138105;-68
2023/05/16 10:07:45;;;;;;;4.80;2.20;;;;;;;18.42;53.26;99717.03;103607;1251;106060;-68
2023/05/16 10:10:16;;;;;;;4.10;2.20;;;;;;;18.16;53.78;99721.95;103350;1257;137826;-68
2023/05/16 10:12:44;;;;;;;2.70;2.10;;;;;;;17.97;54.20;99728.38;103475;1254;110619;-68
2023/05/16 10:15:12;;;;;;;2.60;2.30;;;;;;;17.78;54.71;99725.71;103335;1256;137771;-68
2023/05/16 10:17:42;;;;;;;2.60;2.40;;;;;;;17.58;55.18;99729.52;103484;1256;97909;-67
2023/05/16 10:20:12;;;;;;;2.60;2.40;;;;;;;17.41;55.59;99733.02;103644;1251;107375;-68
2023/05/16 10:22:43;;;;;;;2.50;2.30;;;;;;;17.28;55.88;99734.92;103410;1251;137873;-68
2023/05/16 10:25:17;;;;;;;3.10;2.80;;;;;;;17.13;56.33;99741.02;103537;1251;109929;-68
2023/05/16 10:27:46;;;;;;;4.80;2.80;;;;;;;17.06;56.69;99741.14;103400;1256;138395;-69
2023/05/16 10:30:16;;;;;;;2.90;2.50;;;;;;;17.03;57.14;99743.83;103454;1257;97768;-69
2023/05/16 10:32:44;;;;;;;3.90;2.90;;;;;;;16.90;57.16;99742.76;103500;1251;108416;-68
2023/05/16 10:35:12;;;;;;;3.80;2.40;;;;;;;16.82;57.54;99744.52;103421;1251;137917;-69
2023/05/16 10:37:40;;;;;;;3.60;2.10;;;;;;;16.76;57.87;99748.43;103506;1251;111232;-68
2023/05/16 10:40:10;;;;;;;3.70;1.90;;;;;;;16.70;58.08;99754.42;103386;1251;138343;-68
2023/05/16 10:42:37;;;;;;;3.00;1.90;;;;;;;16.76;57.91;99757.20;103565;1257;97667;-68
2023/05/16 10:45:20;;;;;;;2.40;2.10;;;;;;;16.84;57.84;99753.88;103390;1251;108563;-68
2023/05/16 10:47:55;;;;;;;3.30;1.90;;;;;;;16.96;57.97;99753.24;103586;1251;97670;-69
2023/05/16 10:50:34;;;;;;;4.50;2.30;;;;;;;17.06;57.34;99753.78;103695;1251;111669;-67
2023/05/16 10:53:18;;;;;;;3.30;2.10;;;;;;;17.10;57.30;99741.45;103427;1256;138624;-68
2023/05/16 10:56:04;;;;;;;3.00;1.90;;;;;;;17.23;57.50;99747.55;103598;1255;97784;-68
2023/05/16 10:58:45;;;;;;;7.00;2.30;;;;;;;17.30;57.25;99748.81;103755;1257;138063;-67
2023/05/16 11:01:23;;;;;;;2.40;2.10;;;;;;;17.32;56.99;99755.42;103475;1254;97771;-67
2023/05/16 11:04:19;;;;;;;2.00;1.90;;;;;;;17.35;57.13;99754.68;103507;1251;138232;-68
2023/05/16 11:06:57;;;;;;;3.70;2.20;;;;;;;17.52;57.26;99762.11;103092;1258;108456;-68
2023/05/16 11:09:28;;;;;;;3.50;2.50;;;;;;;17.68;56.78;99758.91;103164;1258;138341;-68
2023/05/16 11:12:02;;;;;;;3.40;2.10;;;;;;;17.78;56.76;99756.98;103082;1257;108185;-68
2023/05/16 11:14:37;;;;;;;3.80;2.50;;;;;;;17.86;56.57;99759.42;103040;1263;97708;-68
2023/05/16 11:17:08;;;;;;;5.60;2.40;;;;;;;17.90;56.49;99767.79;103510;1258;137939;-69
2023/05/16 11:19:39;;;;;;;7.30;3.20;;;;;;;17.92;56.21;99765.70;103406;1257;106940;-68